sensor_id;sensor_type;location;lat;lon;timestamp;pressure;altitude;pressure_sealevel;temperature;humidity
24336;BME280;33098;52.400;16.880;2023-02-10T00:01:40;102260.95;;;0.56;61.90
24336;BME280;33098;52.400;16.880;2023-02-10T00:04:10;102262.36;;;0.53;61.94
24336;BME280;33098;52.400;16.880;2023-02-10T00:06:38;102265.48;;;0.59;62.11
24336;BME280;33098;52.400;16.880;2023-02-10T00:09:09;102264.06;;;0.60;62.04
24336;BME280;33098;52.400;16.880;2023-02-10T00:11:37;102272.67;;;0.54;62.05
24336;BME280;33098;52.400;16.880;2023-02-10T00:14:23;102274.95;;;0.53;62.24
24336;BME280;33098;52.400;16.880;2023-02-10T00:16:54;102268.46;;;0.54;62.19
24336;BME280;33098;52.400;16.880;2023-02-10T00:19:27;102258.35;;;0.54;62.26
24336;BME280;33098;52.400;16.880;2023-02-10T00:22:01;102257.11;;;0.55;62.44
24336;BME280;33098;52.400;16.880;2023-02-10T00:24:28;102258.55;;;0.49;62.33
24336;BME280;33098;52.400;16.880;2023-02-10T00:26:58;102252.14;;;0.41;62.42
24336;BME280;33098;52.400;16.880;2023-02-10T00:29:26;102248.81;;;0.44;62.49
24336;BME280;33098;52.400;16.880;2023-02-10T00:31:55;102246.17;;;0.45;62.62
24336;BME280;33098;52.400;16.880;2023-02-10T00:34:31;102254.35;;;0.49;62.67
24336;BME280;33098;52.400;16.880;2023-02-10T00:36:58;102260.84;;;0.48;62.62
24336;BME280;33098;52.400;16.880;2023-02-10T00:39:25;102260.89;;;0.40;62.54
24336;BME280;33098;52.400;16.880;2023-02-10T00:42:05;102262.46;;;0.40;62.69
24336;BME280;33098;52.400;16.880;2023-02-10T00:44:39;102259.63;;;0.45;62.77
24336;BME280;33098;52.400;16.880;2023-02-10T00:47:08;102254.55;;;0.48;62.86
24336;BME280;33098;52.400;16.880;2023-02-10T00:49:37;102250.16;;;0.50;62.84
24336;BME280;33098;52.400;16.880;2023-02-10T00:52:04;102244.59;;;0.48;62.90
24336;BME280;33098;52.400;16.880;2023-02-10T00:54:31;102245.30;;;0.44;62.85
24336;BME280;33098;52.400;16.880;2023-02-10T00:57:04;102246.02;;;0.44;62.92
24336;BME280;33098;52.400;16.880;2023-02-10T00:59:34;102238.69;;;0.43;62.95
24336;BME280;33098;52.400;16.880;2023-02-10T01:02:01;102235.89;;;0.43;62.88
24336;BME280;33098;52.400;16.880;2023-02-10T01:04:29;102240.96;;;0.42;62.96
24336;BME280;33098;52.400;16.880;2023-02-10T01:06:56;102235.55;;;0.40;62.94
24336;BME280;33098;52.400;16.880;2023-02-10T01:09:23;102238.67;;;0.44;63.13
24336;BME280;33098;52.400;16.880;2023-02-10T01:11:50;102234.81;;;0.47;63.09
24336;BME280;33098;52.400;16.880;2023-02-10T01:14:16;102234.50;;;0.42;62.98
24336;BME280;33098;52.400;16.880;2023-02-10T01:16:47;102231.42;;;0.33;63.21
24336;BME280;33098;52.400;16.880;2023-02-10T01:19:15;102236.00;;;0.28;63.25
24336;BME280;33098;52.400;16.880;2023-02-10T01:21:44;102234.06;;;0.31;63.35
24336;BME280;33098;52.400;16.880;2023-02-10T01:24:31;102226.71;;;0.32;63.48
24336;BME280;33098;52.400;16.880;2023-02-10T01:27:00;102233.23;;;0.26;63.51
24336;BME280;33098;52.400;16.880;2023-02-10T01:29:27;102230.11;;;0.22;63.44
24336;BME280;33098;52.400;16.880;2023-02-10T01:31:55;102235.14;;;0.25;63.47
24336;BME280;33098;52.400;16.880;2023-02-10T01:34:26;102232.17;;;0.28;63.72
24336;BME280;33098;52.400;16.880;2023-02-10T01:36:53;102225.52;;;0.30;63.66
24336;BME280;33098;52.400;16.880;2023-02-10T01:39:22;102226.38;;;0.32;63.78
24336;BME280;33098;52.400;16.880;2023-02-10T01:41:51;102221.11;;;0.32;63.80
24336;BME280;33098;52.400;16.880;2023-02-10T01:46:49;102219.04;;;0.32;64.02
24336;BME280;33098;52.400;16.880;2023-02-10T01:49:18;102224.39;;;0.39;64.09
24336;BME280;33098;52.400;16.880;2023-02-10T01:52:05;102212.88;;;0.37;63.98
24336;BME280;33098;52.400;16.880;2023-02-10T01:54:42;102210.93;;;0.41;64.12
24336;BME280;33098;52.400;16.880;2023-02-10T01:57:13;102221.33;;;0.51;64.24
24336;BME280;33098;52.400;16.880;2023-02-10T01:59:41;102234.89;;;0.60;64.14
24336;BME280;33098;52.400;16.880;2023-02-10T02:02:10;102236.79;;;0.63;64.05
24336;BME280;33098;52.400;16.880;2023-02-10T02:04:59;102236.20;;;0.71;64.07
24336;BME280;33098;52.400;16.880;2023-02-10T02:07:29;102239.86;;;0.70;64.07
24336;BME280;33098;52.400;16.880;2023-02-10T02:09:59;102237.26;;;0.70;64.00
24336;BME280;33098;52.400;16.880;2023-02-10T02:13:03;102236.73;;;0.69;63.92
24336;BME280;33098;52.400;16.880;2023-02-10T02:15:51;102234.45;;;0.70;63.93
24336;BME280;33098;52.400;16.880;2023-02-10T02:18:37;102228.20;;;0.65;64.01
24336;BME280;33098;52.400;16.880;2023-02-10T02:24:10;102226.58;;;0.72;64.27
24336;BME280;33098;52.400;16.880;2023-02-10T02:32:24;102226.48;;;0.81;64.35
24336;BME280;33098;52.400;16.880;2023-02-10T02:37:31;102236.30;;;0.79;64.30
24336;BME280;33098;52.400;16.880;2023-02-10T02:40:11;102229.27;;;0.82;64.23
24336;BME280;33098;52.400;16.880;2023-02-10T02:42:39;102232.62;;;0.80;64.24
24336;BME280;33098;52.400;16.880;2023-02-10T02:45:08;102239.97;;;0.79;64.26
24336;BME280;33098;52.400;16.880;2023-02-10T02:53:35;102240.96;;;0.66;64.45
24336;BME280;33098;52.400;16.880;2023-02-10T02:56:35;102241.08;;;0.70;64.51
24336;BME280;33098;52.400;16.880;2023-02-10T02:59:20;102237.19;;;0.76;64.81
24336;BME280;33098;52.400;16.880;2023-02-10T03:01:58;102233.13;;;0.81;64.68
24336;BME280;33098;52.400;16.880;2023-02-10T03:04:29;102236.68;;;0.75;64.65
24336;BME280;33098;52.400;16.880;2023-02-10T03:06:57;102234.73;;;0.76;64.72
24336;BME280;33098;52.400;16.880;2023-02-10T03:09:30;102235.98;;;0.75;64.66
24336;BME280;33098;52.400;16.880;2023-02-10T03:12:00;102238.60;;;0.75;64.76
24336;BME280;33098;52.400;16.880;2023-02-10T03:14:27;102238.30;;;0.70;64.82
24336;BME280;33098;52.400;16.880;2023-02-10T03:16:56;102242.95;;;0.77;65.07
24336;BME280;33098;52.400;16.880;2023-02-10T03:19:27;102250.02;;;0.88;65.00
24336;BME280;33098;52.400;16.880;2023-02-10T03:21:54;102259.22;;;0.96;64.85
24336;BME280;33098;52.400;16.880;2023-02-10T03:24:21;102253.41;;;0.99;64.95
24336;BME280;33098;52.400;16.880;2023-02-10T03:26:48;102254.89;;;1.09;64.98
24336;BME280;33098;52.400;16.880;2023-02-10T03:29:15;102253.27;;;1.13;64.97
24336;BME280;33098;52.400;16.880;2023-02-10T03:31:43;102255.15;;;1.19;64.86
24336;BME280;33098;52.400;16.880;2023-02-10T03:34:12;102260.63;;;1.12;64.78
24336;BME280;33098;52.400;16.880;2023-02-10T03:36:39;102266.73;;;1.14;64.82
24336;BME280;33098;52.400;16.880;2023-02-10T03:39:10;102270.55;;;1.19;64.80
24336;BME280;33098;52.400;16.880;2023-02-10T03:41:37;102267.86;;;1.23;64.85
24336;BME280;33098;52.400;16.880;2023-02-10T03:44:04;102269.61;;;1.24;64.84
24336;BME280;33098;52.400;16.880;2023-02-10T03:46:31;102275.86;;;1.28;64.83
24336;BME280;33098;52.400;16.880;2023-02-10T03:48:57;102274.42;;;1.14;64.86
24336;BME280;33098;52.400;16.880;2023-02-10T03:51:28;102271.39;;;1.03;65.07
24336;BME280;33098;52.400;16.880;2023-02-10T03:53:56;102275.58;;;1.03;65.07
24336;BME280;33098;52.400;16.880;2023-02-10T03:56:25;102279.66;;;0.97;65.39
24336;BME280;33098;52.400;16.880;2023-02-10T03:58:52;102280.89;;;0.97;65.50
24336;BME280;33098;52.400;16.880;2023-02-10T04:01:19;102286.41;;;1.04;65.51
24336;BME280;33098;52.400;16.880;2023-02-10T04:03:48;102282.13;;;1.13;65.54
24336;BME280;33098;52.400;16.880;2023-02-10T04:06:15;102287.35;;;1.15;65.44
24336;BME280;33098;52.400;16.880;2023-02-10T04:08:46;102282.31;;;1.13;65.45
24336;BME280;33098;52.400;16.880;2023-02-10T04:11:20;102282.97;;;1.17;65.47
24336;BME280;33098;52.400;16.880;2023-02-10T04:13:48;102281.89;;;1.20;65.50
24336;BME280;33098;52.400;16.880;2023-02-10T04:16:16;102285.56;;;1.21;65.44
24336;BME280;33098;52.400;16.880;2023-02-10T04:18:47;102284.89;;;1.16;65.64
24336;BME280;33098;52.400;16.880;2023-02-10T04:21:16;102287.06;;;1.09;65.80
24336;BME280;33098;52.400;16.880;2023-02-10T04:23:46;102283.05;;;0.89;65.72
24336;BME280;33098;52.400;16.880;2023-02-10T04:26:13;102285.53;;;0.85;65.95
24336;BME280;33098;52.400;16.880;2023-02-10T04:28:41;102292.59;;;0.78;66.36
24336;BME280;33098;52.400;16.880;2023-02-10T04:31:07;102299.95;;;0.74;66.41
24336;BME280;33098;52.400;16.880;2023-02-10T04:33:36;102299.11;;;0.69;66.41
24336;BME280;33098;52.400;16.880;2023-02-10T04:36:04;102295.86;;;0.62;66.84
24336;BME280;33098;52.400;16.880;2023-02-10T04:38:38;102289.55;;;0.63;66.85
24336;BME280;33098;52.400;16.880;2023-02-10T04:41:05;102279.30;;;0.78;67.03
24336;BME280;33098;52.400;16.880;2023-02-10T04:43:33;102272.89;;;0.91;66.97
24336;BME280;33098;52.400;16.880;2023-02-10T04:46:05;102270.05;;;0.97;67.08
24336;BME280;33098;52.400;16.880;2023-02-10T04:48:31;102278.73;;;1.03;66.85
24336;BME280;33098;52.400;16.880;2023-02-10T04:50:58;102277.81;;;1.07;66.82
24336;BME280;33098;52.400;16.880;2023-02-10T04:53:25;102280.63;;;1.05;66.78
24336;BME280;33098;52.400;16.880;2023-02-10T04:55:55;102281.85;;;1.06;66.77
24336;BME280;33098;52.400;16.880;2023-02-10T04:58:24;102288.01;;;1.02;66.88
24336;BME280;33098;52.400;16.880;2023-02-10T05:00:54;102288.95;;;0.93;66.96
24336;BME280;33098;52.400;16.880;2023-02-10T05:03:25;102291.40;;;0.93;67.08
24336;BME280;33098;52.400;16.880;2023-02-10T05:05:52;102288.67;;;0.86;67.04
24336;BME280;33098;52.400;16.880;2023-02-10T05:08:19;102286.77;;;0.85;67.30
24336;BME280;33098;52.400;16.880;2023-02-10T05:10:47;102284.83;;;0.87;67.27
24336;BME280;33098;52.400;16.880;2023-02-10T05:13:14;102285.68;;;0.88;67.30
24336;BME280;33098;52.400;16.880;2023-02-10T05:15:41;102279.86;;;0.95;67.43
24336;BME280;33098;52.400;16.880;2023-02-10T05:18:09;102281.27;;;0.94;67.49
24336;BME280;33098;52.400;16.880;2023-02-10T05:20:36;102281.77;;;0.95;67.55
24336;BME280;33098;52.400;16.880;2023-02-10T05:23:03;102275.77;;;1.02;67.73
24336;BME280;33098;52.400;16.880;2023-02-10T05:25:30;102277.46;;;1.07;67.63
24336;BME280;33098;52.400;16.880;2023-02-10T05:27:57;102277.28;;;1.09;67.78
24336;BME280;33098;52.400;16.880;2023-02-10T05:30:23;102285.33;;;1.07;67.63
24336;BME280;33098;52.400;16.880;2023-02-10T05:32:52;102286.38;;;1.08;67.83
24336;BME280;33098;52.400;16.880;2023-02-10T05:35:19;102297.36;;;1.10;67.75
24336;BME280;33098;52.400;16.880;2023-02-10T05:37:50;102298.41;;;1.10;67.87
24336;BME280;33098;52.400;16.880;2023-02-10T05:40:16;102300.38;;;1.07;68.00
24336;BME280;33098;52.400;16.880;2023-02-10T05:42:43;102302.12;;;1.08;68.02
24336;BME280;33098;52.400;16.880;2023-02-10T05:45:13;102299.30;;;1.10;68.37
24336;BME280;33098;52.400;16.880;2023-02-10T05:47:40;102301.38;;;1.12;68.29
24336;BME280;33098;52.400;16.880;2023-02-10T05:50:08;102303.96;;;1.15;68.36
24336;BME280;33098;52.400;16.880;2023-02-10T05:52:40;102298.58;;;1.12;68.46
24336;BME280;33098;52.400;16.880;2023-02-10T05:55:07;102304.26;;;1.03;68.57
24336;BME280;33098;52.400;16.880;2023-02-10T05:57:34;102311.14;;;0.97;68.61
24336;BME280;33098;52.400;16.880;2023-02-10T06:00:03;102304.46;;;0.99;68.66
24336;BME280;33098;52.400;16.880;2023-02-10T06:02:38;102315.47;;;1.00;68.88
24336;BME280;33098;52.400;16.880;2023-02-10T06:05:11;102310.95;;;0.97;68.98
24336;BME280;33098;52.400;16.880;2023-02-10T06:07:40;102311.83;;;0.97;69.02
24336;BME280;33098;52.400;16.880;2023-02-10T06:10:07;102313.89;;;1.02;69.04
24336;BME280;33098;52.400;16.880;2023-02-10T06:12:34;102314.02;;;1.05;69.26
24336;BME280;33098;52.400;16.880;2023-02-10T06:15:05;102316.15;;;1.04;69.29
24336;BME280;33098;52.400;16.880;2023-02-10T06:17:31;102309.48;;;1.05;69.13
24336;BME280;33098;52.400;16.880;2023-02-10T06:19:59;102309.79;;;1.10;69.16
24336;BME280;33098;52.400;16.880;2023-02-10T06:22:26;102307.37;;;1.08;69.15
24336;BME280;33098;52.400;16.880;2023-02-10T06:24:53;102308.83;;;1.01;69.13
24336;BME280;33098;52.400;16.880;2023-02-10T06:27:23;102318.29;;;0.99;69.28
24336;BME280;33098;52.400;16.880;2023-02-10T06:29:51;102322.31;;;0.98;69.36
24336;BME280;33098;52.400;16.880;2023-02-10T06:32:21;102322.65;;;1.00;69.44
24336;BME280;33098;52.400;16.880;2023-02-10T06:34:50;102328.60;;;0.99;69.66
24336;BME280;33098;52.400;16.880;2023-02-10T06:37:17;102325.47;;;0.97;69.68
24336;BME280;33098;52.400;16.880;2023-02-10T06:39:45;102320.05;;;0.98;69.75
24336;BME280;33098;52.400;16.880;2023-02-10T06:42:14;102320.23;;;0.97;69.89
24336;BME280;33098;52.400;16.880;2023-02-10T06:44:44;102324.21;;;1.01;70.00
24336;BME280;33098;52.400;16.880;2023-02-10T06:47:12;102325.38;;;1.07;70.24
24336;BME280;33098;52.400;16.880;2023-02-10T06:49:39;102332.52;;;1.11;70.01
24336;BME280;33098;52.400;16.880;2023-02-10T06:52:06;102341.73;;;1.17;70.06
24336;BME280;33098;52.400;16.880;2023-02-10T06:54:33;102344.15;;;1.21;70.21
24336;BME280;33098;52.400;16.880;2023-02-10T06:57:03;102345.98;;;1.31;70.35
24336;BME280;33098;52.400;16.880;2023-02-10T06:59:32;102344.54;;;1.35;70.32
24336;BME280;33098;52.400;16.880;2023-02-10T07:01:58;102340.66;;;1.39;70.05
24336;BME280;33098;52.400;16.880;2023-02-10T07:04:31;102346.77;;;1.41;70.11
24336;BME280;33098;52.400;16.880;2023-02-10T07:06:58;102343.25;;;1.42;70.15
24336;BME280;33098;52.400;16.880;2023-02-10T07:09:25;102342.67;;;1.46;70.20
24336;BME280;33098;52.400;16.880;2023-02-10T07:11:51;102351.27;;;1.46;70.46
24336;BME280;33098;52.400;16.880;2023-02-10T07:14:18;102352.85;;;1.45;70.36
24336;BME280;33098;52.400;16.880;2023-02-10T07:16:48;102356.52;;;1.44;70.62
24336;BME280;33098;52.400;16.880;2023-02-10T07:19:15;102364.17;;;1.50;70.48
24336;BME280;33098;52.400;16.880;2023-02-10T07:21:42;102370.41;;;1.55;70.68
24336;BME280;33098;52.400;16.880;2023-02-10T07:24:09;102374.40;;;1.60;70.68
24336;BME280;33098;52.400;16.880;2023-02-10T07:26:36;102377.13;;;1.66;70.60
24336;BME280;33098;52.400;16.880;2023-02-10T07:29:05;102381.83;;;1.69;70.77
24336;BME280;33098;52.400;16.880;2023-02-10T07:31:32;102384.07;;;1.55;71.09
24336;BME280;33098;52.400;16.880;2023-02-10T07:34:02;102381.75;;;1.42;71.11
24336;BME280;33098;52.400;16.880;2023-02-10T07:36:32;102378.80;;;1.39;71.43
24336;BME280;33098;52.400;16.880;2023-02-10T07:38:59;102380.71;;;1.41;71.34
24336;BME280;33098;52.400;16.880;2023-02-10T07:41:32;102383.46;;;1.45;71.44
24336;BME280;33098;52.400;16.880;2023-02-10T07:43:58;102387.89;;;1.57;71.71
24336;BME280;33098;52.400;16.880;2023-02-10T07:46:25;102394.34;;;1.61;71.70
24336;BME280;33098;52.400;16.880;2023-02-10T07:48:57;102394.82;;;1.65;71.87
24336;BME280;33098;52.400;16.880;2023-02-10T07:51:24;102401.08;;;1.69;71.77
24336;BME280;33098;52.400;16.880;2023-02-10T07:53:52;102404.40;;;1.69;71.82
24336;BME280;33098;52.400;16.880;2023-02-10T07:56:22;102402.63;;;1.72;72.17
24336;BME280;33098;52.400;16.880;2023-02-10T07:58:55;102401.45;;;1.84;72.32
24336;BME280;33098;52.400;16.880;2023-02-10T08:01:23;102402.05;;;1.78;72.21
24336;BME280;33098;52.400;16.880;2023-02-10T08:03:55;102407.17;;;1.73;72.46
24336;BME280;33098;52.400;16.880;2023-02-10T08:06:26;102407.73;;;1.68;72.92
24336;BME280;33098;52.400;16.880;2023-02-10T08:08:53;102398.20;;;1.59;73.40
24336;BME280;33098;52.400;16.880;2023-02-10T08:11:21;102390.77;;;1.68;73.24
24336;BME280;33098;52.400;16.880;2023-02-10T08:13:52;102387.23;;;1.72;73.37
24336;BME280;33098;52.400;16.880;2023-02-10T08:16:19;102394.85;;;1.78;73.37
24336;BME280;33098;52.400;16.880;2023-02-10T08:18:51;102400.62;;;1.81;73.31
24336;BME280;33098;52.400;16.880;2023-02-10T08:21:23;102400.07;;;1.81;73.53
24336;BME280;33098;52.400;16.880;2023-02-10T08:23:52;102407.03;;;1.86;73.75
24336;BME280;33098;52.400;16.880;2023-02-10T08:26:25;102412.27;;;1.88;73.64
24336;BME280;33098;52.400;16.880;2023-02-10T08:28:54;102414.90;;;1.87;73.62
24336;BME280;33098;52.400;16.880;2023-02-10T08:31:23;102423.11;;;1.89;73.72
24336;BME280;33098;52.400;16.880;2023-02-10T08:33:56;102423.45;;;1.90;73.39
24336;BME280;33098;52.400;16.880;2023-02-10T08:36:27;102424.64;;;1.94;73.56
24336;BME280;33098;52.400;16.880;2023-02-10T08:38:59;102420.07;;;1.96;73.50
24336;BME280;33098;52.400;16.880;2023-02-10T08:41:29;102427.80;;;1.92;73.43
24336;BME280;33098;52.400;16.880;2023-02-10T08:44:00;102440.39;;;1.95;73.76
24336;BME280;33098;52.400;16.880;2023-02-10T08:46:30;102440.73;;;1.96;73.94
24336;BME280;33098;52.400;16.880;2023-02-10T08:48:59;102448.37;;;2.01;73.66
24336;BME280;33098;52.400;16.880;2023-02-10T08:51:28;102447.63;;;2.06;73.88
24336;BME280;33098;52.400;16.880;2023-02-10T08:54:05;102444.40;;;2.12;73.73
24336;BME280;33098;52.400;16.880;2023-02-10T08:56:33;102436.11;;;2.18;73.54
24336;BME280;33098;52.400;16.880;2023-02-10T08:59:06;102432.02;;;2.24;73.40
24336;BME280;33098;52.400;16.880;2023-02-10T09:01:36;102435.44;;;2.29;73.43
24336;BME280;33098;52.400;16.880;2023-02-10T09:04:04;102437.56;;;2.27;73.56
24336;BME280;33098;52.400;16.880;2023-02-10T09:06:38;102432.36;;;2.23;73.47
24336;BME280;33098;52.400;16.880;2023-02-10T09:09:13;102430.57;;;2.26;73.79
24336;BME280;33098;52.400;16.880;2023-02-10T09:11:44;102425.61;;;2.31;73.92
24336;BME280;33098;52.400;16.880;2023-02-10T09:14:15;102426.60;;;2.36;73.82
24336;BME280;33098;52.400;16.880;2023-02-10T09:16:46;102441.88;;;2.48;74.04
24336;BME280;33098;52.400;16.880;2023-02-10T09:19:15;102453.91;;;2.53;73.94
24336;BME280;33098;52.400;16.880;2023-02-10T09:21:42;102456.71;;;2.52;73.83
24336;BME280;33098;52.400;16.880;2023-02-10T09:24:10;102464.73;;;2.58;73.86
24336;BME280;33098;52.400;16.880;2023-02-10T09:26:37;102463.22;;;2.65;73.80
24336;BME280;33098;52.400;16.880;2023-02-10T09:29:04;102471.98;;;2.65;73.79
24336;BME280;33098;52.400;16.880;2023-02-10T09:31:32;102476.45;;;2.58;74.06
24336;BME280;33098;52.400;16.880;2023-02-10T09:34:02;102474.79;;;2.51;74.29
24336;BME280;33098;52.400;16.880;2023-02-10T09:36:31;102472.35;;;2.49;74.52
24336;BME280;33098;52.400;16.880;2023-02-10T09:38:59;102477.14;;;2.59;74.63
24336;BME280;33098;52.400;16.880;2023-02-10T09:41:45;102480.73;;;2.66;74.78
24336;BME280;33098;52.400;16.880;2023-02-10T09:44:21;102483.55;;;2.66;74.73
24336;BME280;33098;52.400;16.880;2023-02-10T09:55:59;102471.69;;;2.47;75.82
24336;BME280;33098;52.400;16.880;2023-02-10T10:06:40;102463.26;;;2.33;77.33
24336;BME280;33098;52.400;16.880;2023-02-10T10:11:43;102457.50;;;2.60;76.67
24336;BME280;33098;52.400;16.880;2023-02-10T10:14:26;102464.68;;;2.73;76.71
24336;BME280;33098;52.400;16.880;2023-02-10T10:33:53;102471.11;;;2.36;78.22
24336;BME280;33098;52.400;16.880;2023-02-10T10:36:36;102474.48;;;2.48;78.09
24336;BME280;33098;52.400;16.880;2023-02-10T10:39:31;102468.08;;;2.55;77.83
24336;BME280;33098;52.400;16.880;2023-02-10T10:42:16;102469.92;;;2.62;77.67
24336;BME280;33098;52.400;16.880;2023-02-10T10:44:47;102475.48;;;2.66;77.89
24336;BME280;33098;52.400;16.880;2023-02-10T10:47:20;102464.45;;;2.64;78.15
24336;BME280;33098;52.400;16.880;2023-02-10T10:49:50;102461.55;;;2.71;78.19
24336;BME280;33098;52.400;16.880;2023-02-10T10:52:33;102452.69;;;2.79;78.07
24336;BME280;33098;52.400;16.880;2023-02-10T10:55:14;102457.16;;;2.86;78.09
24336;BME280;33098;52.400;16.880;2023-02-10T10:57:50;102466.41;;;2.88;77.97
24336;BME280;33098;52.400;16.880;2023-02-10T11:00:25;102464.52;;;2.85;77.87
24336;BME280;33098;52.400;16.880;2023-02-10T11:03:04;102464.84;;;2.87;77.96
24336;BME280;33098;52.400;16.880;2023-02-10T11:05:58;102453.52;;;2.82;78.08
24336;BME280;33098;52.400;16.880;2023-02-10T11:08:54;102455.31;;;2.79;78.32
24336;BME280;33098;52.400;16.880;2023-02-10T11:11:36;102447.34;;;2.85;78.29
24336;BME280;33098;52.400;16.880;2023-02-10T11:14:20;102443.58;;;3.03;78.46
24336;BME280;33098;52.400;16.880;2023-02-10T11:16:51;102438.86;;;3.13;78.48
24336;BME280;33098;52.400;16.880;2023-02-10T11:19:25;102435.02;;;3.12;78.26
24336;BME280;33098;52.400;16.880;2023-02-10T11:21:53;102437.02;;;3.19;78.37
24336;BME280;33098;52.400;16.880;2023-02-10T11:29:55;102439.33;;;3.28;78.19
24336;BME280;33098;52.400;16.880;2023-02-10T11:32:33;102443.17;;;3.29;78.06
24336;BME280;33098;52.400;16.880;2023-02-10T11:35:14;102438.30;;;3.27;78.04
24336;BME280;33098;52.400;16.880;2023-02-10T11:37:44;102434.85;;;3.45;78.28
24336;BME280;33098;52.400;16.880;2023-02-10T11:40:29;102435.52;;;3.66;78.00
24336;BME280;33098;52.400;16.880;2023-02-10T11:43:10;102438.47;;;3.88;77.86
24336;BME280;33098;52.400;16.880;2023-02-10T11:45:51;102424.86;;;4.01;77.67
24336;BME280;33098;52.400;16.880;2023-02-10T11:48:22;102415.03;;;4.10;77.29
24336;BME280;33098;52.400;16.880;2023-02-10T11:51:11;102412.71;;;4.20;77.24
24336;BME280;33098;52.400;16.880;2023-02-10T11:53:40;102407.77;;;4.38;76.86
24336;BME280;33098;52.400;16.880;2023-02-10T11:56:18;102408.05;;;4.59;77.05
24336;BME280;33098;52.400;16.880;2023-02-10T11:59:08;102410.97;;;4.77;76.64
24336;BME280;33098;52.400;16.880;2023-02-10T12:02:00;102401.73;;;4.89;75.98
24336;BME280;33098;52.400;16.880;2023-02-10T12:07:27;102408.09;;;4.95;75.51
24336;BME280;33098;52.400;16.880;2023-02-10T12:10:10;102416.04;;;4.87;74.95
24336;BME280;33098;52.400;16.880;2023-02-10T12:15:34;102424.34;;;4.62;74.60
24336;BME280;33098;52.400;16.880;2023-02-10T12:20:57;102417.92;;;4.49;75.05
24336;BME280;33098;52.400;16.880;2023-02-10T12:24:01;102424.52;;;4.61;75.30
24336;BME280;33098;52.400;16.880;2023-02-10T12:26:47;102426.02;;;4.81;75.46
24336;BME280;33098;52.400;16.880;2023-02-10T12:29:26;102428.95;;;5.06;75.35
24336;BME280;33098;52.400;16.880;2023-02-10T12:32:21;102430.90;;;5.20;75.02
24336;BME280;33098;52.400;16.880;2023-02-10T12:48:35;102422.67;;;5.19;73.79
24336;BME280;33098;52.400;16.880;2023-02-10T12:54:17;102423.39;;;5.03;73.18
24336;BME280;33098;52.400;16.880;2023-02-10T12:56:46;102423.34;;;4.83;73.26
24336;BME280;33098;52.400;16.880;2023-02-10T12:59:23;102421.13;;;4.79;73.70
24336;BME280;33098;52.400;16.880;2023-02-10T13:01:54;102418.36;;;4.78;73.98
24336;BME280;33098;52.400;16.880;2023-02-10T13:04:36;102419.90;;;4.79;74.16
24336;BME280;33098;52.400;16.880;2023-02-10T13:07:24;102423.52;;;4.74;74.23
24336;BME280;33098;52.400;16.880;2023-02-10T13:10:09;102422.30;;;4.66;74.49
24336;BME280;33098;52.400;16.880;2023-02-10T13:12:53;102417.41;;;4.64;74.62
24336;BME280;33098;52.400;16.880;2023-02-10T13:15:37;102420.89;;;4.58;74.93
24336;BME280;33098;52.400;16.880;2023-02-10T13:18:22;102422.73;;;4.54;74.99
24336;BME280;33098;52.400;16.880;2023-02-10T13:21:11;102419.67;;;4.57;75.42
24336;BME280;33098;52.400;16.880;2023-02-10T13:23:52;102422.39;;;4.54;75.40
24336;BME280;33098;52.400;16.880;2023-02-10T13:29:42;102422.52;;;4.64;75.57
24336;BME280;33098;52.400;16.880;2023-02-10T13:35:06;102423.92;;;4.80;75.54
24336;BME280;33098;52.400;16.880;2023-02-10T13:37:48;102420.73;;;4.96;75.64
24336;BME280;33098;52.400;16.880;2023-02-10T13:40:23;102416.35;;;5.11;75.29
24336;BME280;33098;52.400;16.880;2023-02-10T13:42:56;102408.80;;;5.10;74.88
24336;BME280;33098;52.400;16.880;2023-02-10T13:45:30;102409.10;;;4.97;74.50
24336;BME280;33098;52.400;16.880;2023-02-10T13:48:05;102412.41;;;4.84;74.61
24336;BME280;33098;52.400;16.880;2023-02-10T13:50:46;102416.17;;;4.80;74.87
24336;BME280;33098;52.400;16.880;2023-02-10T13:53:37;102413.48;;;4.83;75.21
24336;BME280;33098;52.400;16.880;2023-02-10T14:01:48;102406.21;;;5.00;74.91
24336;BME280;33098;52.400;16.880;2023-02-10T14:06:49;102413.52;;;4.89;74.95
24336;BME280;33098;52.400;16.880;2023-02-10T14:09:33;102415.78;;;4.90;75.14
24336;BME280;33098;52.400;16.880;2023-02-10T14:12:03;102416.44;;;4.92;75.51
24336;BME280;33098;52.400;16.880;2023-02-10T14:14:36;102418.16;;;4.78;75.53
24336;BME280;33098;52.400;16.880;2023-02-10T14:17:22;102413.48;;;4.67;75.64
24336;BME280;33098;52.400;16.880;2023-02-10T14:19:59;102415.16;;;4.63;76.09
24336;BME280;33098;52.400;16.880;2023-02-10T14:22:34;102412.95;;;4.52;76.22
24336;BME280;33098;52.400;16.880;2023-02-10T14:25:16;102411.79;;;4.56;76.26
24336;BME280;33098;52.400;16.880;2023-02-10T14:27:49;102412.03;;;4.53;76.66
24336;BME280;33098;52.400;16.880;2023-02-10T14:31:00;102409.65;;;4.49;76.71
24336;BME280;33098;52.400;16.880;2023-02-10T14:33:30;102404.67;;;4.52;76.87
24336;BME280;33098;52.400;16.880;2023-02-10T14:36:27;102405.28;;;4.56;76.99
24336;BME280;33098;52.400;16.880;2023-02-10T14:38:54;102405.41;;;4.66;76.97
24336;BME280;33098;52.400;16.880;2023-02-10T14:41:30;102404.95;;;4.71;76.83
24336;BME280;33098;52.400;16.880;2023-02-10T14:44:01;102400.66;;;4.75;76.72
24336;BME280;33098;52.400;16.880;2023-02-10T14:46:31;102405.95;;;4.82;76.79
24336;BME280;33098;52.400;16.880;2023-02-10T14:49:02;102408.69;;;4.85;76.52
24336;BME280;33098;52.400;16.880;2023-02-10T14:51:40;102404.57;;;4.88;76.52
24336;BME280;33098;52.400;16.880;2023-02-10T14:54:24;102408.25;;;4.89;76.36
24336;BME280;33098;52.400;16.880;2023-02-10T14:57:00;102404.83;;;4.84;76.21
24336;BME280;33098;52.400;16.880;2023-02-10T14:59:31;102406.10;;;4.90;76.38